Friendship, Texas
Current Conditions -  °F | °C
As of 9:55 AM on Tuesday 21 Oct 2014 (Local Time) from KGRK Reporting Station
Haze Haze  
Wind Chill: 68°   Ceiling: Unl
Heat Index: 68°   Visibility: 5mi
Dew Point: 61°   Wind: 3mph
Humidity: 78%   Direction: 20°NNE
Pressure: 30.11"   Gusts: NA
Location:  30.7258°N, 97.436°W
Report Text: KGRK 211455Z 02003KT 5SM BR CLR 20/16 A3011 RMK SLP195 52014
Loading
Personal Weather Stations






























Interactive Weather Map
Tropical Storm Tracking
New forecast layout! Learn more

10-Day Weather Forecast

Advertisements
Track Severe Weather on mobile